createdAt,value
2023-01-08T00:00:47.180Z,5.68
2023-01-08T00:03:13.882Z,5.62
2023-01-08T00:05:40.403Z,5.64
2023-01-08T00:08:08.544Z,5.69
2023-01-08T00:10:35.692Z,5.71
2023-01-08T00:13:02.237Z,5.76
2023-01-08T00:15:30.177Z,5.75
2023-01-08T00:17:57.182Z,5.74
2023-01-08T00:20:23.868Z,5.69
2023-01-08T00:22:50.613Z,5.62
2023-01-08T00:25:17.340Z,5.60
2023-01-08T00:27:51.091Z,5.65
2023-01-08T00:30:17.577Z,5.65
2023-01-08T00:32:44.011Z,5.62
2023-01-08T00:35:10.546Z,5.69
2023-01-08T00:37:37.027Z,5.69
2023-01-08T00:40:03.616Z,4.90
2023-01-08T00:42:30.070Z,5.79
2023-01-08T00:44:56.578Z,5.76
2023-01-08T00:47:23.009Z,5.77
2023-01-08T00:49:49.447Z,5.82
2023-01-08T00:52:15.976Z,5.80
2023-01-08T00:54:42.416Z,5.78
2023-01-08T00:57:08.858Z,5.74
2023-01-08T00:59:35.511Z,5.75
2023-01-08T01:02:02.104Z,5.69
2023-01-08T01:04:28.798Z,5.61
2023-01-08T01:06:55.365Z,5.57
2023-01-08T01:09:21.821Z,5.51
2023-01-08T01:11:48.265Z,5.54
2023-01-08T01:14:14.771Z,5.52
2023-01-08T01:16:41.987Z,5.50
2023-01-08T01:19:08.529Z,5.46
2023-01-08T01:21:35.071Z,5.42
2023-01-08T01:24:02.687Z,5.38
2023-01-08T01:26:29.401Z,5.31
2023-01-08T01:28:56.204Z,5.29
2023-01-08T01:31:23.013Z,5.29
2023-01-08T01:33:49.848Z,5.26
2023-01-08T01:39:51.341Z,5.27
2023-01-08T01:42:36.566Z,5.22
2023-01-08T01:45:23.274Z,5.15
2023-01-08T01:47:55.176Z,5.12
2023-01-08T01:50:31.435Z,5.12
2023-01-08T01:53:00.948Z,5.12
2023-01-08T01:55:27.752Z,5.12
2023-01-08T01:58:14.474Z,5.16
2023-01-08T02:00:41.141Z,5.14
2023-01-08T02:03:07.661Z,5.15
2023-01-08T02:05:38.194Z,5.17
2023-01-08T02:08:10.092Z,5.24
2023-01-08T02:10:36.546Z,5.30
2023-01-08T02:13:08.390Z,5.30
2023-01-08T02:15:36.509Z,5.40
2023-01-08T02:18:05.761Z,5.41
2023-01-08T02:20:33.616Z,5.38
2023-01-08T02:23:15.522Z,5.37
2023-01-08T02:26:00.634Z,5.40
2023-01-08T02:28:27.185Z,5.37
2023-01-08T02:30:53.746Z,5.38
2023-01-08T02:33:20.268Z,5.42
2023-01-08T02:35:52.414Z,5.45
2023-01-08T02:38:18.855Z,5.47
2023-01-08T02:40:51.395Z,5.50
2023-01-08T02:43:18.350Z,5.52
2023-01-08T02:45:48.506Z,5.54
2023-01-08T02:48:24.215Z,5.56
2023-01-08T02:50:58.965Z,5.65
2023-01-08T02:53:26.549Z,5.67
2023-01-08T02:55:57.231Z,5.76
2023-01-08T02:58:23.896Z,5.76
2023-01-08T03:00:50.474Z,5.75
2023-01-08T03:03:24.144Z,5.75
2023-01-08T03:05:51.714Z,5.78
2023-01-08T03:08:18.210Z,5.78
2023-01-08T03:10:45.613Z,5.80
2023-01-08T03:13:13.394Z,5.84
2023-01-08T03:15:44.312Z,5.87
2023-01-08T03:18:11.419Z,5.91
2023-01-08T03:20:38.221Z,5.94
2023-01-08T03:23:06.313Z,5.91
2023-01-08T03:25:32.732Z,5.92
2023-01-08T03:28:00.768Z,5.91
2023-01-08T03:30:27.228Z,5.93
2023-01-08T03:32:53.895Z,5.91
2023-01-08T03:35:20.842Z,5.91
2023-01-08T03:37:49.438Z,5.94
2023-01-08T03:40:23.745Z,5.92
2023-01-08T03:42:50.283Z,5.84
2023-01-08T03:45:16.732Z,5.77
2023-01-08T03:47:43.287Z,5.73
2023-01-08T03:50:11.448Z,5.74
2023-01-08T03:52:37.921Z,5.77
2023-01-08T03:55:04.634Z,5.74
2023-01-08T03:57:31.109Z,5.78
2023-01-08T03:59:57.624Z,5.80
2023-01-08T04:02:24.196Z,5.82
2023-01-08T04:04:50.797Z,5.83
2023-01-08T04:07:17.260Z,5.85
2023-01-08T04:09:43.717Z,5.79
2023-01-08T04:12:10.168Z,5.75
2023-01-08T04:14:36.623Z,5.72
2023-01-08T04:17:03.144Z,5.74
2023-01-08T04:19:29.605Z,5.75
2023-01-08T04:21:56.052Z,5.75
2023-01-08T04:24:22.603Z,5.68
2023-01-08T04:26:49.064Z,5.67
2023-01-08T04:29:15.534Z,5.72
2023-01-08T04:31:41.978Z,5.73
2023-01-08T04:34:08.428Z,5.75
2023-01-08T04:36:34.891Z,5.73
2023-01-08T04:39:01.369Z,5.68
2023-01-08T04:41:27.844Z,5.67
2023-01-08T04:43:54.324Z,5.62
2023-01-08T04:46:20.883Z,5.61
2023-01-08T04:48:47.470Z,5.60
2023-01-08T04:51:14.030Z,5.60
2023-01-08T04:53:41.519Z,5.55
2023-01-08T04:56:08.765Z,5.52
2023-01-08T04:58:35.476Z,5.51
2023-01-08T05:01:02.100Z,5.45
2023-01-08T05:03:28.622Z,5.45
2023-01-08T05:05:55.170Z,5.48
2023-01-08T05:08:21.707Z,5.47
2023-01-08T05:10:48.229Z,5.38
2023-01-08T05:13:14.683Z,5.28
2023-01-08T05:15:41.216Z,5.23
2023-01-08T05:18:07.742Z,5.22
2023-01-08T05:20:34.263Z,5.21
2023-01-08T05:23:01.309Z,5.16
2023-01-08T05:25:27.785Z,5.12
2023-01-08T05:27:54.246Z,5.13
2023-01-08T05:30:20.785Z,5.14
2023-01-08T05:32:47.292Z,5.08
2023-01-08T05:35:13.773Z,5.00
2023-01-08T05:37:40.880Z,4.97
2023-01-08T05:40:07.603Z,4.95
2023-01-08T05:42:34.575Z,4.97
2023-01-08T05:45:01.347Z,4.96
2023-01-08T05:47:31.276Z,4.92
2023-01-08T05:49:57.816Z,4.94
2023-01-08T05:52:24.278Z,4.94
2023-01-08T05:54:50.743Z,4.96
2023-01-08T05:57:17.279Z,4.92
2023-01-08T05:59:43.741Z,4.89
2023-01-08T06:02:10.212Z,4.85
2023-01-08T06:04:36.786Z,4.86
2023-01-08T06:07:03.275Z,4.84
2023-01-08T06:09:29.747Z,4.81
2023-01-08T06:11:58.179Z,4.78
2023-01-08T06:14:24.795Z,4.85
2023-01-08T06:16:51.257Z,4.87
2023-01-08T06:19:19.096Z,4.86
2023-01-08T06:21:45.686Z,4.85
2023-01-08T06:24:12.191Z,4.80
2023-01-08T06:26:38.692Z,4.83
2023-01-08T06:29:05.193Z,4.91
2023-01-08T06:31:31.756Z,4.95
2023-01-08T06:33:58.262Z,4.97
2023-01-08T06:36:24.810Z,4.96
2023-01-08T06:38:51.318Z,5.00
2023-01-08T06:41:17.940Z,5.10
2023-01-08T06:43:44.422Z,5.14
2023-01-08T06:46:11.026Z,5.22
2023-01-08T06:48:37.644Z,5.19
2023-01-08T06:51:04.227Z,5.15
2023-01-08T06:53:30.740Z,5.13
2023-01-08T06:55:58.673Z,5.13
2023-01-08T06:58:28.391Z,5.09
2023-01-08T07:00:54.913Z,5.10
2023-01-08T07:03:21.435Z,5.15
2023-01-08T07:05:47.960Z,5.17
2023-01-08T07:08:14.840Z,5.18
2023-01-08T07:10:41.610Z,5.25
2023-01-08T07:13:09.203Z,5.27
2023-01-08T07:15:36.272Z,5.31
2023-01-08T07:18:06.398Z,5.35
2023-01-08T07:20:33.381Z,5.39
2023-01-08T07:23:06.647Z,5.42
2023-01-08T07:25:33.229Z,5.53
2023-01-08T07:28:00.787Z,5.57
2023-01-08T07:30:30.125Z,5.60
2023-01-08T07:33:00.644Z,5.64
2023-01-08T07:35:27.382Z,5.65
2023-01-08T07:37:53.918Z,5.68
2023-01-08T07:40:20.528Z,5.66
2023-01-08T07:42:47.046Z,5.67
2023-01-08T07:45:13.542Z,5.69
2023-01-08T07:47:40.063Z,5.65
2023-01-08T07:50:06.720Z,5.62
2023-01-08T07:52:33.173Z,5.61
2023-01-08T07:54:59.659Z,5.66
2023-01-08T07:57:26.159Z,5.73
2023-01-08T07:59:52.664Z,5.75
2023-01-08T08:02:19.337Z,5.80
2023-01-08T08:04:45.866Z,5.85
2023-01-08T08:07:12.363Z,5.90
2023-01-08T08:09:38.859Z,5.92
2023-01-08T08:12:05.431Z,5.94
2023-01-08T08:14:31.905Z,5.97
2023-01-08T08:16:58.411Z,6.01
2023-01-08T08:19:24.898Z,6.03
2023-01-08T08:21:51.358Z,6.06
2023-01-08T08:24:17.839Z,6.10
2023-01-08T08:26:44.355Z,6.16
2023-01-08T08:29:10.892Z,6.31
2023-01-08T08:31:37.443Z,6.45
2023-01-08T08:34:03.918Z,6.57
2023-01-08T08:36:30.485Z,6.67
2023-01-08T08:38:57.047Z,6.85
2023-01-08T08:41:23.479Z,7.19
2023-01-08T08:43:51.410Z,7.43
2023-01-08T08:46:18.029Z,7.70
2023-01-08T08:48:45.282Z,8.06
2023-01-08T08:51:11.916Z,8.36
2023-01-08T08:53:38.405Z,8.60
2023-01-08T08:56:05.030Z,8.84
2023-01-08T08:58:31.506Z,9.18
2023-01-08T09:01:01.092Z,9.59
2023-01-08T09:03:27.631Z,9.95
2023-01-08T09:05:54.167Z,10.14
2023-01-08T09:08:20.678Z,10.41
2023-01-08T09:10:47.143Z,10.78
2023-01-08T09:13:13.647Z,11.14
2023-01-08T09:15:40.169Z,11.63
2023-01-08T09:18:06.667Z,11.92
2023-01-08T09:20:33.133Z,11.94
2023-01-08T09:22:59.884Z,11.97
2023-01-08T09:25:26.422Z,12.03
2023-01-08T09:28:02.828Z,12.08
2023-01-08T09:30:29.370Z,11.91
2023-01-08T09:33:03.097Z,11.61
2023-01-08T09:35:29.922Z,11.29
2023-01-08T09:37:56.444Z,11.00
2023-01-08T09:40:23.902Z,10.80
2023-01-08T09:43:00.382Z,10.61
2023-01-08T09:45:30.227Z,10.41
2023-01-08T09:47:57.243Z,10.21
2023-01-08T09:50:23.811Z,10.03
2023-01-08T09:52:50.339Z,9.88
2023-01-08T09:55:16.832Z,9.70
2023-01-08T09:57:43.901Z,9.57
2023-01-08T10:00:14.339Z,9.46
2023-01-08T10:02:41.125Z,9.38
2023-01-08T10:05:14.849Z,9.32
2023-01-08T10:07:41.355Z,9.27
2023-01-08T10:10:28.178Z,9.26
2023-01-08T10:12:54.685Z,9.23
2023-01-08T10:15:21.596Z,9.20
2023-01-08T10:17:57.272Z,9.18
2023-01-08T10:20:24.387Z,9.14
2023-01-08T10:22:54.179Z,9.14
2023-01-08T10:25:21.547Z,9.04
2023-01-08T10:27:52.070Z,9.00
2023-01-08T10:30:19.398Z,8.97
2023-01-08T10:32:52.007Z,8.91
2023-01-08T10:35:20.305Z,8.92
2023-01-08T10:37:47.810Z,8.87
2023-01-08T10:40:20.434Z,8.85
2023-01-08T10:42:46.909Z,8.90
2023-01-08T10:45:26.243Z,8.90
2023-01-08T10:47:56.785Z,8.89
2023-01-08T10:50:24.477Z,8.93
2023-01-08T10:52:58.337Z,8.93
2023-01-08T10:55:26.033Z,8.97
2023-01-08T10:57:53.555Z,9.06
2023-01-08T11:00:27.248Z,9.12
2023-01-08T11:02:53.799Z,9.13
2023-01-08T11:05:20.569Z,9.16
2023-01-08T11:07:53.531Z,9.19
2023-01-08T11:10:23.856Z,9.13
2023-01-08T11:12:54.387Z,9.12
2023-01-08T11:15:20.901Z,9.12
2023-01-08T11:17:47.404Z,9.05
2023-01-08T11:20:24.104Z,9.02
2023-01-08T11:22:50.828Z,8.99
2023-01-08T11:25:23.229Z,8.96
2023-01-08T11:27:49.704Z,8.89
2023-01-08T11:30:23.478Z,8.82
2023-01-08T11:33:02.145Z,8.76
2023-01-08T11:35:30.062Z,8.72
2023-01-08T11:38:00.246Z,8.70
2023-01-08T11:40:26.767Z,8.70
2023-01-08T11:43:03.650Z,8.61
2023-01-08T11:45:44.074Z,8.59
2023-01-08T11:48:16.584Z,8.49
2023-01-08T11:51:02.048Z,8.38
2023-01-08T11:53:28.484Z,8.35
2023-01-08T11:55:58.677Z,8.38
2023-01-08T11:58:31.393Z,8.36
2023-01-08T12:00:57.844Z,8.28
2023-01-08T12:03:24.356Z,8.28
2023-01-08T12:06:01.549Z,8.27
2023-01-08T12:08:28.043Z,8.28
2023-01-08T12:11:00.127Z,8.27
2023-01-08T12:13:38.594Z,8.27
2023-01-08T12:16:17.405Z,8.24
2023-01-08T12:18:47.126Z,8.28
2023-01-08T12:21:14.161Z,8.27
2023-01-08T12:23:52.892Z,8.21
2023-01-08T12:26:19.416Z,8.20
2023-01-08T12:28:53.117Z,8.16
2023-01-08T12:31:22.803Z,8.17
2023-01-08T12:33:57.214Z,8.23
2023-01-08T12:36:44.441Z,8.21
2023-01-08T12:39:12.727Z,8.24
2023-01-08T12:41:39.464Z,8.23
2023-01-08T12:44:06.537Z,8.23
2023-01-08T12:46:33.885Z,8.25
2023-01-08T12:49:00.396Z,8.24
2023-01-08T12:51:29.128Z,8.30
2023-01-08T12:54:07.819Z,8.29
2023-01-08T12:56:34.284Z,8.34
2023-01-08T12:59:12.228Z,8.32
2023-01-08T13:01:42.575Z,8.22
2023-01-08T13:04:09.617Z,8.16
2023-01-08T13:06:36.152Z,8.16
2023-01-08T13:09:02.836Z,8.13
2023-01-08T13:11:30.723Z,8.04
2023-01-08T13:14:06.937Z,7.99
2023-01-08T13:16:39.079Z,8.03
2023-01-08T13:19:05.685Z,7.99
2023-01-08T13:21:36.252Z,7.96
2023-01-08T13:24:23.028Z,7.98
2023-01-08T13:26:49.527Z,7.99
2023-01-08T13:29:26.819Z,7.97
2023-01-08T13:31:53.366Z,7.97
2023-01-08T13:34:35.358Z,7.93
2023-01-08T13:37:01.918Z,7.91
2023-01-08T13:39:32.579Z,7.93
2023-01-08T13:41:59.073Z,7.85
2023-01-08T13:44:29.626Z,7.87
2023-01-08T13:46:57.044Z,7.82
2023-01-08T13:49:36.852Z,7.80
2023-01-08T13:52:03.414Z,7.80
2023-01-08T13:54:35.469Z,7.78
2023-01-08T13:57:04.162Z,7.73
2023-01-08T13:59:33.804Z,7.72
2023-01-08T14:02:01.411Z,7.79
2023-01-08T14:04:28.071Z,7.80
2023-01-08T14:07:04.859Z,7.78
2023-01-08T14:09:33.218Z,7.80
2023-01-08T14:12:01.042Z,7.77
2023-01-08T14:14:27.476Z,7.81
2023-01-08T14:16:54.107Z,7.81
2023-01-08T14:19:21.268Z,7.81
2023-01-08T14:21:51.222Z,7.81
2023-01-08T14:24:17.991Z,7.77
2023-01-08T14:26:46.940Z,7.78
2023-01-08T14:29:17.116Z,7.74
2023-01-08T14:31:47.228Z,7.75
2023-01-08T14:34:13.737Z,7.70
2023-01-08T14:36:40.962Z,7.67
2023-01-08T14:39:21.872Z,7.64
2023-01-08T14:42:09.575Z,7.63
2023-01-08T14:44:40.447Z,7.65
2023-01-08T14:47:13.941Z,7.65
2023-01-08T14:49:44.825Z,7.60
2023-01-08T14:52:12.142Z,7.57
2023-01-08T14:54:38.567Z,7.56
2023-01-08T14:57:05.035Z,7.52
2023-01-08T14:59:33.330Z,7.48
2023-01-08T15:02:40.401Z,7.46
2023-01-08T15:05:14.879Z,7.49
2023-01-08T15:07:42.078Z,7.46
2023-01-08T15:10:31.913Z,7.42
2023-01-08T15:13:00.881Z,7.42
2023-01-08T15:15:27.353Z,7.45
2023-01-08T15:17:54.021Z,7.44
2023-01-08T15:20:20.780Z,7.44
2023-01-08T15:22:47.204Z,7.51
2023-01-08T15:25:17.172Z,7.49
2023-01-08T15:27:49.154Z,7.47
2023-01-08T15:30:26.121Z,7.49
2023-01-08T15:32:52.784Z,7.44
2023-01-08T15:35:19.268Z,7.44
2023-01-08T15:37:45.776Z,7.44
2023-01-08T15:40:12.404Z,7.42
2023-01-08T15:43:17.392Z,7.43
2023-01-08T15:45:44.824Z,7.39
2023-01-08T15:48:11.279Z,7.36
2023-01-08T15:50:38.945Z,7.31
2023-01-08T15:53:25.677Z,7.29
2023-01-08T15:55:52.194Z,7.25
2023-01-08T15:58:18.836Z,7.24
2023-01-08T16:00:45.630Z,7.25
2023-01-08T16:03:12.600Z,7.21
2023-01-08T16:05:39.127Z,7.25
2023-01-08T16:08:05.809Z,7.23
2023-01-08T16:10:32.559Z,7.19
2023-01-08T16:12:59.970Z,7.17
2023-01-08T16:15:28.021Z,7.20
2023-01-08T16:17:54.614Z,7.20
2023-01-08T16:20:21.060Z,7.20
2023-01-08T16:22:47.571Z,7.23
2023-01-08T16:25:14.494Z,7.18
2023-01-08T16:27:41.202Z,7.17
2023-01-08T16:30:08.228Z,7.12
2023-01-08T16:32:34.775Z,7.05
2023-01-08T16:35:01.208Z,7.04
2023-01-08T16:37:27.864Z,7.11
2023-01-08T16:39:54.528Z,7.12
2023-01-08T16:42:21.012Z,7.06
2023-01-08T16:44:47.511Z,7.10
2023-01-08T16:47:14.011Z,7.10
2023-01-08T16:49:41.760Z,7.08
2023-01-08T16:52:09.426Z,7.07
2023-01-08T16:54:36.058Z,7.06
2023-01-08T16:57:02.549Z,7.05
2023-01-08T16:59:29.022Z,7.05
2023-01-08T17:01:55.584Z,7.00
2023-01-08T17:04:22.069Z,7.01
2023-01-08T17:06:48.531Z,7.07
2023-01-08T17:09:15.094Z,7.08
2023-01-08T17:11:41.653Z,7.06
2023-01-08T17:14:08.449Z,7.05
2023-01-08T17:16:35.112Z,7.05
2023-01-08T17:19:01.744Z,7.04
2023-01-08T17:21:28.179Z,7.04
2023-01-08T17:23:54.789Z,7.02
2023-01-08T17:26:21.377Z,7.02
2023-01-08T17:28:48.026Z,7.03
2023-01-08T17:31:15.492Z,7.08
2023-01-08T17:33:42.114Z,7.09
2023-01-08T17:36:15.616Z,7.10
2023-01-08T17:38:43.288Z,7.10
2023-01-08T17:41:10.168Z,7.08
2023-01-08T17:43:36.880Z,7.05
2023-01-08T17:46:06.943Z,7.04
2023-01-08T17:48:33.670Z,7.02
2023-01-08T17:51:41.366Z,7.03
2023-01-08T17:54:17.302Z,7.02
2023-01-08T17:56:43.785Z,7.02
2023-01-08T17:59:13.937Z,7.01
2023-01-08T18:01:40.391Z,7.02
2023-01-08T18:04:06.984Z,7.02
2023-01-08T18:06:33.596Z,7.01
2023-01-08T18:09:00.309Z,7.02
2023-01-08T18:11:27.144Z,7.02
2023-01-08T18:14:00.291Z,6.99
2023-01-08T18:16:26.915Z,6.98
2023-01-08T18:18:53.501Z,6.97
2023-01-08T18:21:20.006Z,6.95
2023-01-08T18:23:49.542Z,6.94
2023-01-08T18:26:16.371Z,6.92
2023-01-08T18:28:42.969Z,6.90
2023-01-08T18:31:10.187Z,6.92
2023-01-08T18:33:36.933Z,6.92
2023-01-08T18:36:06.351Z,6.94
2023-01-08T18:38:33.117Z,6.97
2023-01-08T18:40:59.681Z,6.96
2023-01-08T18:43:28.525Z,6.95
2023-01-08T18:45:58.798Z,6.94
2023-01-08T18:48:25.261Z,6.93
2023-01-08T18:50:51.727Z,6.92
2023-01-08T18:53:20.009Z,6.94
2023-01-08T18:55:46.496Z,6.95
2023-01-08T18:58:13.024Z,6.97
2023-01-08T19:00:39.557Z,7.03
2023-01-08T19:03:08.998Z,7.03
2023-01-08T19:05:41.992Z,7.13
2023-01-08T19:08:08.567Z,7.14
2023-01-08T19:10:35.687Z,7.14
2023-01-08T19:13:02.217Z,7.08
2023-01-08T19:15:28.857Z,7.08
2023-01-08T19:17:55.347Z,7.12
2023-01-08T19:20:21.830Z,7.17
2023-01-08T19:22:48.371Z,7.15
2023-01-08T19:25:15.882Z,7.20
2023-01-08T19:27:42.480Z,7.24
2023-01-08T19:30:09.461Z,7.27
2023-01-08T19:32:35.971Z,7.26
2023-01-08T19:35:02.789Z,7.25
2023-01-08T19:37:29.364Z,7.27
2023-01-08T19:40:00.458Z,7.28
2023-01-08T19:42:48.881Z,7.26
2023-01-08T19:45:15.406Z,7.28
2023-01-08T19:47:42.008Z,7.28
2023-01-08T19:50:10.264Z,7.20
2023-01-08T19:52:36.799Z,7.17
2023-01-08T19:55:03.644Z,7.17
2023-01-08T19:57:30.130Z,7.15
2023-01-08T19:59:56.603Z,7.17
2023-01-08T20:02:23.191Z,7.17
2023-01-08T20:04:49.769Z,7.21
2023-01-08T20:07:16.279Z,7.22
2023-01-08T20:09:42.813Z,7.23
2023-01-08T20:12:09.638Z,7.26
2023-01-08T20:14:36.196Z,7.31
2023-01-08T20:17:02.680Z,7.31
2023-01-08T20:19:29.185Z,7.29
2023-01-08T20:21:55.758Z,7.28
2023-01-08T20:24:22.229Z,7.24
2023-01-08T20:26:48.773Z,7.23
2023-01-08T20:29:15.485Z,7.21
2023-01-08T20:31:42.218Z,7.21
2023-01-08T20:34:10.481Z,7.18
2023-01-08T20:36:36.997Z,7.20
2023-01-08T20:39:06.751Z,7.21
2023-01-08T20:41:33.312Z,7.19
2023-01-08T20:44:01.380Z,7.16
2023-01-08T20:46:28.671Z,7.15
2023-01-08T20:48:55.909Z,7.12
2023-01-08T20:51:22.493Z,7.11
2023-01-08T20:54:01.681Z,7.07
2023-01-08T20:56:28.206Z,7.05
2023-01-08T20:58:54.783Z,7.01
2023-01-08T21:01:21.953Z,7.03
2023-01-08T21:03:49.401Z,6.98
2023-01-08T21:06:16.694Z,7.02
2023-01-08T21:08:43.783Z,6.99
2023-01-08T21:11:10.546Z,6.96
2023-01-08T21:13:37.920Z,6.97
2023-01-08T21:16:06.399Z,7.01
2023-01-08T21:18:33.126Z,6.96
2023-01-08T21:21:00.673Z,6.91
2023-01-08T21:23:28.263Z,6.86
2023-01-08T21:25:58.126Z,6.85
2023-01-08T21:28:25.036Z,6.81
2023-01-08T21:30:51.598Z,6.72
2023-01-08T21:33:18.065Z,6.71
2023-01-08T21:35:44.553Z,6.66
2023-01-08T21:38:11.554Z,6.61
2023-01-08T21:40:38.093Z,6.62
2023-01-08T21:43:23.542Z,6.58
2023-01-08T21:45:50.876Z,6.56
2023-01-08T21:48:17.355Z,6.56
2023-01-08T21:50:43.875Z,6.57
2023-01-08T21:53:29.051Z,6.59
2023-01-08T21:55:55.562Z,6.55
2023-01-08T21:58:22.139Z,6.56
2023-01-08T22:00:48.666Z,6.49
2023-01-08T22:03:15.152Z,6.49
2023-01-08T22:05:41.640Z,6.48
2023-01-08T22:08:09.476Z,6.55
2023-01-08T22:10:36.044Z,6.52
2023-01-08T22:13:02.526Z,6.41
2023-01-08T22:15:28.980Z,6.33
2023-01-08T22:17:55.519Z,6.30
2023-01-08T22:20:22.027Z,6.29
2023-01-08T22:22:49.165Z,6.24
2023-01-08T22:25:15.945Z,6.17
2023-01-08T22:27:42.414Z,6.04
2023-01-08T22:30:09.970Z,5.97
2023-01-08T22:32:36.471Z,5.92
2023-01-08T22:35:03.050Z,5.82
2023-01-08T22:37:29.510Z,5.72
2023-01-08T22:39:56.108Z,5.70
2023-01-08T22:42:23.275Z,5.64
2023-01-08T22:45:00.700Z,5.56
2023-01-08T22:47:27.728Z,5.52
2023-01-08T22:49:54.247Z,5.44
2023-01-08T22:52:20.713Z,5.41
2023-01-08T22:54:47.254Z,5.41
2023-01-08T22:57:13.828Z,5.37
2023-01-08T22:59:40.392Z,5.28
2023-01-08T23:02:06.879Z,5.25
2023-01-08T23:04:33.420Z,5.30
2023-01-08T23:06:59.906Z,5.31
2023-01-08T23:09:26.348Z,5.26
2023-01-08T23:11:53.014Z,5.21
2023-01-08T23:14:19.709Z,5.17
2023-01-08T23:16:46.271Z,5.23
2023-01-08T23:19:12.824Z,5.23
2023-01-08T23:21:39.386Z,5.19
2023-01-08T23:24:07.129Z,5.18
2023-01-08T23:26:33.600Z,5.16
2023-01-08T23:29:00.722Z,5.19
2023-01-08T23:31:27.743Z,5.14
2023-01-08T23:33:54.372Z,5.12
2023-01-08T23:36:21.484Z,5.11
2023-01-08T23:38:49.661Z,5.12
2023-01-08T23:41:19.530Z,5.11
2023-01-08T23:43:46.330Z,5.08
2023-01-08T23:46:13.592Z,5.05
2023-01-08T23:48:40.158Z,5.09
2023-01-08T23:51:06.962Z,5.08
2023-01-08T23:53:33.451Z,5.13
2023-01-08T23:55:59.939Z,5.16
2023-01-08T23:58:26.431Z,5.19
